Etusivu
METAR-TAF:

METAR-TAF

Lentoasemat :

Ghanzi, Botswana

Leveyspiiri: 21-42S, Pituuspiiri: 021-39E, korkeus merenpinnasta: 1131 m

METAR: puuttuu

Aika: 12:36 (10:36 UTC)

Sääennuste

Tämä raportti tehtiin 25 tuntia ja 36 minuuttia sitten, kello 09.00 UTC
Ennuste voimassa 25. päivästä klo 12 UTC - 25. päivään klo 21 UTC
Tuuli 5 kn pohjoisesta
Näkyvyys 10 km tai enemmän
Hajanaisia pilviä 2500 ft:n korkeudessa

TAF: FBGZ 250900Z 2512/2521 35005KT 9999 SCT025

Säähavainnot ja -ennusteet yli 4000 lentoasemalta (METAR- ja TAF-raportit).

Käytössä olevat sääasemat on merkitty karttaan keltaisilla ja punaisilla pisteillä.

Aseta hiiri pisteen päälle nähdäksesi sääaseman nimen.

Klikkaa sitten nähdäksesi säähavainnot ja -ennusteet.

Kartan vaihtaminen: klikkaa mustalla rastilla varustettuja vihreitä pisteitä, niin voit zoomata sisään; viivalla varustettua vihreää pistettä, niin voit zoomata ulos tai vihreitä nuolia, niin pääset viereisille kartoille.


METAR-TAF: